sensor_id;sensor_type;location;lat;lon;timestamp;P1;durP1;ratioP1;P2;durP2;ratioP2
21032;SDS011;10675;47.976;7.824;2023-05-29T00:00:16;4.63;;;3.00;;
21032;SDS011;10675;47.976;7.824;2023-05-29T00:02:42;4.47;;;2.70;;
21032;SDS011;10675;47.976;7.824;2023-05-29T00:05:09;5.33;;;2.87;;
21032;SDS011;10675;47.976;7.824;2023-05-29T00:07:38;5.80;;;3.13;;
21032;SDS011;10675;47.976;7.824;2023-05-29T00:10:04;6.43;;;2.70;;
21032;SDS011;10675;47.976;7.824;2023-05-29T00:12:31;4.47;;;3.03;;
21032;SDS011;10675;47.976;7.824;2023-05-29T00:14:57;8.50;;;3.50;;
21032;SDS011;10675;47.976;7.824;2023-05-29T00:17:22;4.43;;;2.80;;
21032;SDS011;10675;47.976;7.824;2023-05-29T00:19:48;5.80;;;2.50;;
21032;SDS011;10675;47.976;7.824;2023-05-29T00:22:13;4.57;;;2.67;;
21032;SDS011;10675;47.976;7.824;2023-05-29T00:24:39;5.77;;;3.43;;
21032;SDS011;10675;47.976;7.824;2023-05-29T00:27:05;5.67;;;3.00;;
21032;SDS011;10675;47.976;7.824;2023-05-29T00:29:30;5.50;;;3.37;;
21032;SDS011;10675;47.976;7.824;2023-05-29T00:31:56;5.37;;;3.10;;
21032;SDS011;10675;47.976;7.824;2023-05-29T00:34:22;5.97;;;3.03;;
21032;SDS011;10675;47.976;7.824;2023-05-29T00:36:48;5.67;;;3.10;;
21032;SDS011;10675;47.976;7.824;2023-05-29T00:39:14;4.43;;;3.60;;
21032;SDS011;10675;47.976;7.824;2023-05-29T00:41:40;5.87;;;2.63;;
21032;SDS011;10675;47.976;7.824;2023-05-29T00:44:05;5.47;;;3.03;;
21032;SDS011;10675;47.976;7.824;2023-05-29T00:46:31;5.00;;;3.20;;
21032;SDS011;10675;47.976;7.824;2023-05-29T00:48:58;5.20;;;3.13;;
21032;SDS011;10675;47.976;7.824;2023-05-29T00:51:25;4.20;;;3.17;;
21032;SDS011;10675;47.976;7.824;2023-05-29T00:53:52;6.03;;;3.10;;
21032;SDS011;10675;47.976;7.824;2023-05-29T00:56:18;5.03;;;3.20;;
21032;SDS011;10675;47.976;7.824;2023-05-29T00:58:45;5.03;;;3.20;;
21032;SDS011;10675;47.976;7.824;2023-05-29T01:01:14;5.00;;;3.20;;
21032;SDS011;10675;47.976;7.824;2023-05-29T01:03:40;5.43;;;3.33;;
21032;SDS011;10675;47.976;7.824;2023-05-29T01:06:07;5.13;;;2.73;;
21032;SDS011;10675;47.976;7.824;2023-05-29T01:08:32;5.77;;;3.30;;
21032;SDS011;10675;47.976;7.824;2023-05-29T01:11:00;5.17;;;3.10;;
21032;SDS011;10675;47.976;7.824;2023-05-29T01:13:33;5.10;;;3.17;;
21032;SDS011;10675;47.976;7.824;2023-05-29T01:16:04;5.40;;;3.30;;
21032;SDS011;10675;47.976;7.824;2023-05-29T01:18:41;7.70;;;3.43;;
21032;SDS011;10675;47.976;7.824;2023-05-29T01:29:22;6.57;;;3.07;;
21032;SDS011;10675;47.976;7.824;2023-05-29T01:31:52;4.03;;;2.90;;
21032;SDS011;10675;47.976;7.824;2023-05-29T01:34:19;5.87;;;3.07;;
21032;SDS011;10675;47.976;7.824;2023-05-29T01:36:45;3.97;;;3.03;;
21032;SDS011;10675;47.976;7.824;2023-05-29T01:39:11;5.53;;;3.33;;
21032;SDS011;10675;47.976;7.824;2023-05-29T01:41:38;5.33;;;2.80;;
21032;SDS011;10675;47.976;7.824;2023-05-29T01:44:05;4.50;;;2.90;;
21032;SDS011;10675;47.976;7.824;2023-05-29T01:46:38;4.47;;;2.73;;
21032;SDS011;10675;47.976;7.824;2023-05-29T01:49:07;4.33;;;2.50;;
21032;SDS011;10675;47.976;7.824;2023-05-29T01:51:34;6.67;;;3.37;;
21032;SDS011;10675;47.976;7.824;2023-05-29T01:54:00;6.13;;;2.90;;
21032;SDS011;10675;47.976;7.824;2023-05-29T01:56:26;4.47;;;3.40;;
21032;SDS011;10675;47.976;7.824;2023-05-29T01:58:54;4.63;;;2.97;;
21032;SDS011;10675;47.976;7.824;2023-05-29T02:01:21;6.23;;;2.97;;
21032;SDS011;10675;47.976;7.824;2023-05-29T02:03:47;4.87;;;3.03;;
21032;SDS011;10675;47.976;7.824;2023-05-29T02:06:12;5.13;;;2.90;;
21032;SDS011;10675;47.976;7.824;2023-05-29T02:08:38;6.10;;;3.27;;
21032;SDS011;10675;47.976;7.824;2023-05-29T02:11:03;6.60;;;3.23;;
21032;SDS011;10675;47.976;7.824;2023-05-29T02:13:29;5.00;;;3.00;;
21032;SDS011;10675;47.976;7.824;2023-05-29T02:15:55;3.90;;;2.83;;
21032;SDS011;10675;47.976;7.824;2023-05-29T02:18:20;4.30;;;2.80;;
21032;SDS011;10675;47.976;7.824;2023-05-29T02:20:46;4.33;;;3.07;;
21032;SDS011;10675;47.976;7.824;2023-05-29T02:23:12;4.53;;;2.93;;
21032;SDS011;10675;47.976;7.824;2023-05-29T02:25:37;4.87;;;2.87;;
21032;SDS011;10675;47.976;7.824;2023-05-29T02:28:03;5.03;;;3.17;;
21032;SDS011;10675;47.976;7.824;2023-05-29T02:30:29;4.33;;;2.90;;
21032;SDS011;10675;47.976;7.824;2023-05-29T02:32:55;7.53;;;3.30;;
21032;SDS011;10675;47.976;7.824;2023-05-29T02:35:21;4.17;;;2.87;;
21032;SDS011;10675;47.976;7.824;2023-05-29T02:37:48;5.73;;;3.30;;
21032;SDS011;10675;47.976;7.824;2023-05-29T02:40:14;5.83;;;3.40;;
21032;SDS011;10675;47.976;7.824;2023-05-29T02:42:40;6.53;;;3.07;;
21032;SDS011;10675;47.976;7.824;2023-05-29T02:45:05;5.20;;;3.10;;
21032;SDS011;10675;47.976;7.824;2023-05-29T02:47:31;6.50;;;3.50;;
21032;SDS011;10675;47.976;7.824;2023-05-29T02:49:57;4.50;;;3.10;;
21032;SDS011;10675;47.976;7.824;2023-05-29T02:52:22;4.70;;;3.07;;
21032;SDS011;10675;47.976;7.824;2023-05-29T02:54:48;5.43;;;3.40;;
21032;SDS011;10675;47.976;7.824;2023-05-29T02:57:14;6.37;;;3.30;;
21032;SDS011;10675;47.976;7.824;2023-05-29T02:59:40;6.73;;;2.87;;
21032;SDS011;10675;47.976;7.824;2023-05-29T03:02:06;4.73;;;3.17;;
21032;SDS011;10675;47.976;7.824;2023-05-29T03:04:31;4.47;;;3.20;;
21032;SDS011;10675;47.976;7.824;2023-05-29T03:06:57;8.17;;;3.20;;
21032;SDS011;10675;47.976;7.824;2023-05-29T03:09:22;5.50;;;3.40;;
21032;SDS011;10675;47.976;7.824;2023-05-29T03:11:48;6.33;;;3.40;;
21032;SDS011;10675;47.976;7.824;2023-05-29T03:14:15;4.60;;;3.10;;
21032;SDS011;10675;47.976;7.824;2023-05-29T03:16:41;6.77;;;3.73;;
21032;SDS011;10675;47.976;7.824;2023-05-29T03:19:08;3.80;;;2.80;;
21032;SDS011;10675;47.976;7.824;2023-05-29T03:21:33;3.63;;;2.80;;
21032;SDS011;10675;47.976;7.824;2023-05-29T03:24:00;3.80;;;2.87;;
21032;SDS011;10675;47.976;7.824;2023-05-29T03:26:27;7.63;;;3.37;;
21032;SDS011;10675;47.976;7.824;2023-05-29T03:28:53;5.27;;;2.63;;
21032;SDS011;10675;47.976;7.824;2023-05-29T03:31:18;5.30;;;2.90;;
21032;SDS011;10675;47.976;7.824;2023-05-29T03:33:44;6.80;;;3.37;;
21032;SDS011;10675;47.976;7.824;2023-05-29T03:36:10;5.70;;;3.07;;
21032;SDS011;10675;47.976;7.824;2023-05-29T03:38:36;6.80;;;3.23;;
21032;SDS011;10675;47.976;7.824;2023-05-29T03:41:01;4.87;;;3.20;;
21032;SDS011;10675;47.976;7.824;2023-05-29T03:43:27;9.70;;;2.73;;
21032;SDS011;10675;47.976;7.824;2023-05-29T03:45:52;4.57;;;2.97;;
21032;SDS011;10675;47.976;7.824;2023-05-29T03:48:18;5.83;;;3.17;;
21032;SDS011;10675;47.976;7.824;2023-05-29T03:50:44;3.27;;;2.70;;
21032;SDS011;10675;47.976;7.824;2023-05-29T03:53:11;4.73;;;3.13;;
21032;SDS011;10675;47.976;7.824;2023-05-29T03:55:36;6.70;;;3.50;;
21032;SDS011;10675;47.976;7.824;2023-05-29T03:58:02;4.13;;;3.07;;
21032;SDS011;10675;47.976;7.824;2023-05-29T04:00:27;6.07;;;3.57;;
21032;SDS011;10675;47.976;7.824;2023-05-29T04:02:54;6.17;;;3.20;;
21032;SDS011;10675;47.976;7.824;2023-05-29T04:05:20;6.20;;;3.30;;
21032;SDS011;10675;47.976;7.824;2023-05-29T04:07:46;5.37;;;3.00;;
21032;SDS011;10675;47.976;7.824;2023-05-29T04:10:11;7.67;;;3.40;;
21032;SDS011;10675;47.976;7.824;2023-05-29T04:12:37;7.07;;;3.60;;
21032;SDS011;10675;47.976;7.824;2023-05-29T04:15:03;5.83;;;3.27;;
21032;SDS011;10675;47.976;7.824;2023-05-29T04:17:29;7.40;;;3.13;;
21032;SDS011;10675;47.976;7.824;2023-05-29T04:19:55;4.53;;;3.03;;
21032;SDS011;10675;47.976;7.824;2023-05-29T04:22:20;5.63;;;3.00;;
21032;SDS011;10675;47.976;7.824;2023-05-29T04:24:46;4.80;;;3.73;;
21032;SDS011;10675;47.976;7.824;2023-05-29T04:27:12;5.23;;;3.17;;
21032;SDS011;10675;47.976;7.824;2023-05-29T04:29:38;4.63;;;2.97;;
21032;SDS011;10675;47.976;7.824;2023-05-29T04:32:07;5.73;;;3.20;;
21032;SDS011;10675;47.976;7.824;2023-05-29T04:34:34;5.83;;;3.30;;
21032;SDS011;10675;47.976;7.824;2023-05-29T04:37:00;4.67;;;2.80;;
21032;SDS011;10675;47.976;7.824;2023-05-29T04:39:27;6.00;;;2.87;;
21032;SDS011;10675;47.976;7.824;2023-05-29T04:41:53;5.30;;;3.80;;
21032;SDS011;10675;47.976;7.824;2023-05-29T04:44:19;4.50;;;3.23;;
21032;SDS011;10675;47.976;7.824;2023-05-29T04:46:44;4.97;;;3.00;;
21032;SDS011;10675;47.976;7.824;2023-05-29T04:49:10;6.83;;;3.07;;
21032;SDS011;10675;47.976;7.824;2023-05-29T04:51:37;4.17;;;3.17;;
21032;SDS011;10675;47.976;7.824;2023-05-29T04:54:05;4.93;;;3.47;;
21032;SDS011;10675;47.976;7.824;2023-05-29T04:56:31;6.80;;;3.20;;
21032;SDS011;10675;47.976;7.824;2023-05-29T04:58:57;7.20;;;3.00;;
21032;SDS011;10675;47.976;7.824;2023-05-29T05:01:23;7.17;;;3.43;;
21032;SDS011;10675;47.976;7.824;2023-05-29T05:03:50;6.10;;;3.47;;
21032;SDS011;10675;47.976;7.824;2023-05-29T05:06:17;7.93;;;3.33;;
21032;SDS011;10675;47.976;7.824;2023-05-29T05:08:43;5.37;;;3.00;;
21032;SDS011;10675;47.976;7.824;2023-05-29T05:11:09;5.10;;;3.27;;
21032;SDS011;10675;47.976;7.824;2023-05-29T05:13:34;4.97;;;2.97;;
21032;SDS011;10675;47.976;7.824;2023-05-29T05:16:00;5.60;;;3.40;;
21032;SDS011;10675;47.976;7.824;2023-05-29T05:18:26;8.20;;;3.30;;
21032;SDS011;10675;47.976;7.824;2023-05-29T05:20:51;7.77;;;3.33;;
21032;SDS011;10675;47.976;7.824;2023-05-29T05:23:17;5.27;;;3.57;;
21032;SDS011;10675;47.976;7.824;2023-05-29T05:25:42;4.27;;;3.30;;
21032;SDS011;10675;47.976;7.824;2023-05-29T05:28:08;7.97;;;3.90;;
21032;SDS011;10675;47.976;7.824;2023-05-29T05:30:34;5.63;;;3.23;;
21032;SDS011;10675;47.976;7.824;2023-05-29T05:33:00;5.60;;;3.70;;
21032;SDS011;10675;47.976;7.824;2023-05-29T05:35:26;6.07;;;3.83;;
21032;SDS011;10675;47.976;7.824;2023-05-29T05:37:51;6.10;;;3.53;;
21032;SDS011;10675;47.976;7.824;2023-05-29T05:40:17;5.63;;;3.60;;
21032;SDS011;10675;47.976;7.824;2023-05-29T05:42:43;7.10;;;4.10;;
21032;SDS011;10675;47.976;7.824;2023-05-29T05:45:08;8.07;;;4.47;;
21032;SDS011;10675;47.976;7.824;2023-05-29T05:47:34;7.50;;;3.73;;
21032;SDS011;10675;47.976;7.824;2023-05-29T05:50:00;10.93;;;3.87;;
21032;SDS011;10675;47.976;7.824;2023-05-29T05:52:26;6.67;;;4.03;;
21032;SDS011;10675;47.976;7.824;2023-05-29T05:54:55;8.30;;;4.07;;
21032;SDS011;10675;47.976;7.824;2023-05-29T05:57:21;7.73;;;3.80;;
21032;SDS011;10675;47.976;7.824;2023-05-29T05:59:46;8.00;;;3.77;;
21032;SDS011;10675;47.976;7.824;2023-05-29T06:02:12;10.47;;;4.20;;
21032;SDS011;10675;47.976;7.824;2023-05-29T06:04:37;8.40;;;3.90;;
21032;SDS011;10675;47.976;7.824;2023-05-29T06:07:03;8.83;;;4.33;;
21032;SDS011;10675;47.976;7.824;2023-05-29T06:09:29;4.43;;;3.50;;
21032;SDS011;10675;47.976;7.824;2023-05-29T06:11:54;8.13;;;4.13;;
21032;SDS011;10675;47.976;7.824;2023-05-29T06:14:20;8.90;;;4.53;;
21032;SDS011;10675;47.976;7.824;2023-05-29T06:16:45;5.83;;;4.07;;
21032;SDS011;10675;47.976;7.824;2023-05-29T06:19:11;6.70;;;4.00;;
21032;SDS011;10675;47.976;7.824;2023-05-29T06:21:37;9.67;;;4.17;;
21032;SDS011;10675;47.976;7.824;2023-05-29T06:24:03;7.50;;;3.60;;
21032;SDS011;10675;47.976;7.824;2023-05-29T06:26:28;6.63;;;3.70;;
21032;SDS011;10675;47.976;7.824;2023-05-29T06:28:54;8.37;;;4.33;;
21032;SDS011;10675;47.976;7.824;2023-05-29T06:31:19;6.40;;;4.13;;
21032;SDS011;10675;47.976;7.824;2023-05-29T06:33:45;6.23;;;3.83;;
21032;SDS011;10675;47.976;7.824;2023-05-29T06:36:11;9.67;;;4.13;;
21032;SDS011;10675;47.976;7.824;2023-05-29T06:38:36;5.73;;;3.60;;
21032;SDS011;10675;47.976;7.824;2023-05-29T06:41:02;8.53;;;4.57;;
21032;SDS011;10675;47.976;7.824;2023-05-29T06:43:28;8.70;;;4.23;;
21032;SDS011;10675;47.976;7.824;2023-05-29T06:45:54;8.67;;;3.90;;
21032;SDS011;10675;47.976;7.824;2023-05-29T06:48:20;5.63;;;3.67;;
21032;SDS011;10675;47.976;7.824;2023-05-29T06:50:46;6.60;;;3.63;;
21032;SDS011;10675;47.976;7.824;2023-05-29T06:53:12;7.60;;;3.77;;
21032;SDS011;10675;47.976;7.824;2023-05-29T06:55:38;6.83;;;3.90;;
21032;SDS011;10675;47.976;7.824;2023-05-29T06:58:05;4.90;;;3.57;;
21032;SDS011;10675;47.976;7.824;2023-05-29T07:00:31;9.33;;;4.27;;
21032;SDS011;10675;47.976;7.824;2023-05-29T07:02:57;6.03;;;3.70;;
21032;SDS011;10675;47.976;7.824;2023-05-29T07:05:22;8.87;;;4.13;;
21032;SDS011;10675;47.976;7.824;2023-05-29T07:07:48;9.00;;;3.83;;
21032;SDS011;10675;47.976;7.824;2023-05-29T07:10:13;6.67;;;3.73;;
21032;SDS011;10675;47.976;7.824;2023-05-29T07:12:39;4.73;;;3.77;;
21032;SDS011;10675;47.976;7.824;2023-05-29T07:15:05;4.93;;;3.30;;
21032;SDS011;10675;47.976;7.824;2023-05-29T07:17:30;5.10;;;3.40;;
21032;SDS011;10675;47.976;7.824;2023-05-29T07:19:56;5.97;;;3.90;;
21032;SDS011;10675;47.976;7.824;2023-05-29T07:22:21;5.20;;;3.33;;
21032;SDS011;10675;47.976;7.824;2023-05-29T07:24:47;5.70;;;3.47;;
21032;SDS011;10675;47.976;7.824;2023-05-29T07:27:12;6.17;;;3.90;;
21032;SDS011;10675;47.976;7.824;2023-05-29T07:29:38;7.43;;;3.83;;
21032;SDS011;10675;47.976;7.824;2023-05-29T07:32:03;8.50;;;3.73;;
21032;SDS011;10675;47.976;7.824;2023-05-29T07:34:29;9.40;;;3.50;;
21032;SDS011;10675;47.976;7.824;2023-05-29T07:37:02;5.50;;;3.83;;
21032;SDS011;10675;47.976;7.824;2023-05-29T07:39:29;5.77;;;3.70;;
21032;SDS011;10675;47.976;7.824;2023-05-29T07:41:55;5.45;;;3.88;;
21032;SDS011;10675;47.976;7.824;2023-05-29T07:44:21;6.37;;;3.80;;
21032;SDS011;10675;47.976;7.824;2023-05-29T07:46:47;5.73;;;3.40;;
21032;SDS011;10675;47.976;7.824;2023-05-29T07:49:12;6.70;;;3.67;;
21032;SDS011;10675;47.976;7.824;2023-05-29T07:51:38;4.25;;;2.97;;
21032;SDS011;10675;47.976;7.824;2023-05-29T07:54:04;6.13;;;3.53;;
21032;SDS011;10675;47.976;7.824;2023-05-29T07:56:30;5.53;;;3.25;;
21032;SDS011;10675;47.976;7.824;2023-05-29T07:58:56;6.25;;;3.65;;
21032;SDS011;10675;47.976;7.824;2023-05-29T08:01:22;3.67;;;2.85;;
21032;SDS011;10675;47.976;7.824;2023-05-29T08:03:48;6.00;;;3.85;;
21032;SDS011;10675;47.976;7.824;2023-05-29T08:06:13;5.20;;;3.38;;
21032;SDS011;10675;47.976;7.824;2023-05-29T08:08:39;4.63;;;3.40;;
21032;SDS011;10675;47.976;7.824;2023-05-29T08:11:05;7.43;;;3.35;;
21032;SDS011;10675;47.976;7.824;2023-05-29T08:13:31;8.32;;;3.60;;
21032;SDS011;10675;47.976;7.824;2023-05-29T08:15:56;8.15;;;3.70;;
21032;SDS011;10675;47.976;7.824;2023-05-29T08:18:24;4.95;;;3.53;;
21032;SDS011;10675;47.976;7.824;2023-05-29T08:20:51;5.18;;;3.20;;
21032;SDS011;10675;47.976;7.824;2023-05-29T08:23:17;5.35;;;3.45;;
21032;SDS011;10675;47.976;7.824;2023-05-29T08:25:43;5.30;;;3.13;;
21032;SDS011;10675;47.976;7.824;2023-05-29T08:28:09;4.40;;;2.90;;
21032;SDS011;10675;47.976;7.824;2023-05-29T08:30:34;6.82;;;3.50;;
21032;SDS011;10675;47.976;7.824;2023-05-29T08:33:00;3.90;;;2.70;;
21032;SDS011;10675;47.976;7.824;2023-05-29T08:35:26;5.00;;;3.03;;
21032;SDS011;10675;47.976;7.824;2023-05-29T08:37:52;5.38;;;2.85;;
21032;SDS011;10675;47.976;7.824;2023-05-29T08:40:17;5.90;;;3.28;;
21032;SDS011;10675;47.976;7.824;2023-05-29T08:42:45;5.25;;;3.30;;
21032;SDS011;10675;47.976;7.824;2023-05-29T08:45:13;4.78;;;3.10;;
21032;SDS011;10675;47.976;7.824;2023-05-29T08:47:39;5.35;;;3.42;;
21032;SDS011;10675;47.976;7.824;2023-05-29T08:50:06;6.70;;;3.00;;
21032;SDS011;10675;47.976;7.824;2023-05-29T08:52:33;5.47;;;3.30;;
21032;SDS011;10675;47.976;7.824;2023-05-29T08:55:02;4.10;;;2.85;;
21032;SDS011;10675;47.976;7.824;2023-05-29T08:57:29;7.20;;;3.13;;
21032;SDS011;10675;47.976;7.824;2023-05-29T08:59:56;5.55;;;2.88;;
21032;SDS011;10675;47.976;7.824;2023-05-29T09:02:22;5.25;;;2.97;;
21032;SDS011;10675;47.976;7.824;2023-05-29T09:04:47;5.00;;;3.00;;
21032;SDS011;10675;47.976;7.824;2023-05-29T09:07:19;3.67;;;2.55;;
21032;SDS011;10675;47.976;7.824;2023-05-29T09:09:45;4.28;;;2.78;;
21032;SDS011;10675;47.976;7.824;2023-05-29T09:12:11;4.82;;;2.47;;
21032;SDS011;10675;47.976;7.824;2023-05-29T09:14:42;4.22;;;2.80;;
21032;SDS011;10675;47.976;7.824;2023-05-29T09:17:09;4.65;;;3.03;;
21032;SDS011;10675;47.976;7.824;2023-05-29T09:19:36;5.85;;;2.88;;
21032;SDS011;10675;47.976;7.824;2023-05-29T09:22:09;5.75;;;2.65;;
21032;SDS011;10675;47.976;7.824;2023-05-29T09:24:37;3.42;;;2.70;;
21032;SDS011;10675;47.976;7.824;2023-05-29T09:27:06;4.28;;;2.75;;
21032;SDS011;10675;47.976;7.824;2023-05-29T09:29:39;5.70;;;3.00;;
21032;SDS011;10675;47.976;7.824;2023-05-29T09:32:13;4.22;;;2.80;;
21032;SDS011;10675;47.976;7.824;2023-05-29T09:34:41;4.30;;;2.85;;
21032;SDS011;10675;47.976;7.824;2023-05-29T09:37:08;7.13;;;2.63;;
21032;SDS011;10675;47.976;7.824;2023-05-29T09:39:44;5.93;;;2.78;;
21032;SDS011;10675;47.976;7.824;2023-05-29T09:42:12;4.25;;;2.60;;
21032;SDS011;10675;47.976;7.824;2023-05-29T09:44:39;4.10;;;2.85;;
21032;SDS011;10675;47.976;7.824;2023-05-29T09:47:05;4.47;;;2.45;;
21032;SDS011;10675;47.976;7.824;2023-05-29T09:49:31;4.90;;;2.70;;
21032;SDS011;10675;47.976;7.824;2023-05-29T09:51:57;2.70;;;2.50;;
21032;SDS011;10675;47.976;7.824;2023-05-29T09:54:24;5.18;;;2.92;;
21032;SDS011;10675;47.976;7.824;2023-05-29T09:56:54;5.20;;;2.40;;
21032;SDS011;10675;47.976;7.824;2023-05-29T09:59:23;3.70;;;2.50;;
21032;SDS011;10675;47.976;7.824;2023-05-29T10:01:49;4.78;;;3.17;;
21032;SDS011;10675;47.976;7.824;2023-05-29T10:04:25;7.28;;;2.65;;
21032;SDS011;10675;47.976;7.824;2023-05-29T10:06:50;4.65;;;2.90;;
21032;SDS011;10675;47.976;7.824;2023-05-29T10:09:17;4.03;;;2.58;;
21032;SDS011;10675;47.976;7.824;2023-05-29T10:11:44;3.25;;;2.58;;
21032;SDS011;10675;47.976;7.824;2023-05-29T10:14:14;6.80;;;2.58;;
21032;SDS011;10675;47.976;7.824;2023-05-29T10:16:46;4.05;;;2.53;;
21032;SDS011;10675;47.976;7.824;2023-05-29T10:19:17;5.13;;;3.15;;
21032;SDS011;10675;47.976;7.824;2023-05-29T10:21:47;4.95;;;3.10;;
21032;SDS011;10675;47.976;7.824;2023-05-29T10:24:14;3.88;;;2.72;;
21032;SDS011;10675;47.976;7.824;2023-05-29T10:26:40;3.83;;;2.42;;
21032;SDS011;10675;47.976;7.824;2023-05-29T10:29:17;6.55;;;2.67;;
21032;SDS011;10675;47.976;7.824;2023-05-29T10:34:48;4.10;;;2.47;;
21032;SDS011;10675;47.976;7.824;2023-05-29T10:40:12;3.08;;;2.60;;
21032;SDS011;10675;47.976;7.824;2023-05-29T10:45:03;5.78;;;2.80;;
21032;SDS011;10675;47.976;7.824;2023-05-29T10:47:29;4.80;;;2.65;;
21032;SDS011;10675;47.976;7.824;2023-05-29T10:49:59;4.40;;;2.72;;
21032;SDS011;10675;47.976;7.824;2023-05-29T10:52:26;4.70;;;2.75;;
21032;SDS011;10675;47.976;7.824;2023-05-29T10:54:55;3.92;;;2.80;;
21032;SDS011;10675;47.976;7.824;2023-05-29T10:57:22;7.43;;;2.72;;
21032;SDS011;10675;47.976;7.824;2023-05-29T10:59:48;3.05;;;2.47;;
21032;SDS011;10675;47.976;7.824;2023-05-29T11:02:22;6.32;;;3.05;;
21032;SDS011;10675;47.976;7.824;2023-05-29T11:05:03;4.80;;;2.90;;
21032;SDS011;10675;47.976;7.824;2023-05-29T11:07:34;5.20;;;3.03;;
21032;SDS011;10675;47.976;7.824;2023-05-29T11:10:12;6.25;;;2.97;;
21032;SDS011;10675;47.976;7.824;2023-05-29T11:12:56;4.32;;;2.50;;
21032;SDS011;10675;47.976;7.824;2023-05-29T11:15:23;5.90;;;2.80;;
21032;SDS011;10675;47.976;7.824;2023-05-29T11:17:50;4.35;;;2.75;;
21032;SDS011;10675;47.976;7.824;2023-05-29T11:20:16;5.70;;;2.60;;
21032;SDS011;10675;47.976;7.824;2023-05-29T11:25:24;4.22;;;2.95;;
21032;SDS011;10675;47.976;7.824;2023-05-29T11:27:50;4.15;;;2.60;;
21032;SDS011;10675;47.976;7.824;2023-05-29T11:30:19;3.30;;;2.80;;
21032;SDS011;10675;47.976;7.824;2023-05-29T11:32:46;4.13;;;2.65;;
21032;SDS011;10675;47.976;7.824;2023-05-29T11:35:12;4.38;;;2.88;;
21032;SDS011;10675;47.976;7.824;2023-05-29T11:37:39;3.50;;;2.75;;
21032;SDS011;10675;47.976;7.824;2023-05-29T11:40:08;5.00;;;2.50;;
21032;SDS011;10675;47.976;7.824;2023-05-29T11:42:40;3.55;;;3.05;;
21032;SDS011;10675;47.976;7.824;2023-05-29T11:45:14;4.20;;;3.00;;
21032;SDS011;10675;47.976;7.824;2023-05-29T11:47:56;5.60;;;2.90;;
21032;SDS011;10675;47.976;7.824;2023-05-29T11:50:23;8.57;;;2.65;;
21032;SDS011;10675;47.976;7.824;2023-05-29T11:52:51;4.97;;;3.10;;
21032;SDS011;10675;47.976;7.824;2023-05-29T11:55:17;3.65;;;2.40;;
21032;SDS011;10675;47.976;7.824;2023-05-29T11:57:45;3.00;;;2.58;;
21032;SDS011;10675;47.976;7.824;2023-05-29T12:00:17;4.65;;;2.55;;
21032;SDS011;10675;47.976;7.824;2023-05-29T12:02:44;2.58;;;2.38;;
21032;SDS011;10675;47.976;7.824;2023-05-29T12:05:12;3.30;;;2.78;;
21032;SDS011;10675;47.976;7.824;2023-05-29T12:07:46;4.63;;;2.72;;
21032;SDS011;10675;47.976;7.824;2023-05-29T12:10:21;3.35;;;2.97;;
21032;SDS011;10675;47.976;7.824;2023-05-29T12:12:48;6.13;;;2.85;;
21032;SDS011;10675;47.976;7.824;2023-05-29T12:15:17;4.20;;;2.72;;
21032;SDS011;10675;47.976;7.824;2023-05-29T12:17:47;2.60;;;2.40;;
21032;SDS011;10675;47.976;7.824;2023-05-29T12:20:16;2.78;;;2.58;;
21032;SDS011;10675;47.976;7.824;2023-05-29T12:22:43;4.13;;;2.85;;
21032;SDS011;10675;47.976;7.824;2023-05-29T12:25:13;5.95;;;2.95;;
21032;SDS011;10675;47.976;7.824;2023-05-29T12:27:44;5.15;;;2.70;;
21032;SDS011;10675;47.976;7.824;2023-05-29T12:32:43;7.18;;;2.75;;
21032;SDS011;10675;47.976;7.824;2023-05-29T12:35:19;8.10;;;3.00;;
21032;SDS011;10675;47.976;7.824;2023-05-29T12:37:47;4.90;;;2.47;;
21032;SDS011;10675;47.976;7.824;2023-05-29T12:40:15;3.45;;;2.60;;
21032;SDS011;10675;47.976;7.824;2023-05-29T12:42:45;5.80;;;3.15;;
21032;SDS011;10675;47.976;7.824;2023-05-29T12:45:19;4.63;;;2.88;;
21032;SDS011;10675;47.976;7.824;2023-05-29T12:47:57;4.65;;;2.97;;
21032;SDS011;10675;47.976;7.824;2023-05-29T12:50:29;4.05;;;2.85;;
21032;SDS011;10675;47.976;7.824;2023-05-29T12:53:00;3.75;;;2.63;;
21032;SDS011;10675;47.976;7.824;2023-05-29T12:55:29;4.10;;;2.85;;
21032;SDS011;10675;47.976;7.824;2023-05-29T12:57:58;4.18;;;2.72;;
21032;SDS011;10675;47.976;7.824;2023-05-29T13:00:24;4.22;;;3.15;;
21032;SDS011;10675;47.976;7.824;2023-05-29T13:02:49;4.07;;;2.80;;
21032;SDS011;10675;47.976;7.824;2023-05-29T13:05:15;4.22;;;2.92;;
21032;SDS011;10675;47.976;7.824;2023-05-29T13:07:43;3.53;;;2.58;;
21032;SDS011;10675;47.976;7.824;2023-05-29T13:10:10;4.18;;;3.10;;
21032;SDS011;10675;47.976;7.824;2023-05-29T13:12:36;4.22;;;3.38;;
21032;SDS011;10675;47.976;7.824;2023-05-29T13:15:02;4.97;;;2.78;;
21032;SDS011;10675;47.976;7.824;2023-05-29T13:17:27;3.63;;;2.85;;
21032;SDS011;10675;47.976;7.824;2023-05-29T13:19:53;4.53;;;3.00;;
21032;SDS011;10675;47.976;7.824;2023-05-29T13:22:18;4.82;;;3.05;;
21032;SDS011;10675;47.976;7.824;2023-05-29T13:24:44;5.10;;;3.20;;
21032;SDS011;10675;47.976;7.824;2023-05-29T13:27:10;3.13;;;2.83;;
21032;SDS011;10675;47.976;7.824;2023-05-29T13:29:39;7.32;;;3.05;;
21032;SDS011;10675;47.976;7.824;2023-05-29T13:32:08;4.47;;;3.08;;
21032;SDS011;10675;47.976;7.824;2023-05-29T13:34:33;3.47;;;2.83;;
21032;SDS011;10675;47.976;7.824;2023-05-29T13:37:00;4.60;;;2.85;;
21032;SDS011;10675;47.976;7.824;2023-05-29T13:39:27;3.70;;;2.67;;
21032;SDS011;10675;47.976;7.824;2023-05-29T13:41:52;3.67;;;3.15;;
21032;SDS011;10675;47.976;7.824;2023-05-29T13:44:18;3.42;;;3.10;;
21032;SDS011;10675;47.976;7.824;2023-05-29T13:46:44;5.45;;;3.47;;
21032;SDS011;10675;47.976;7.824;2023-05-29T13:49:09;3.70;;;2.70;;
21032;SDS011;10675;47.976;7.824;2023-05-29T13:51:35;5.38;;;2.80;;
21032;SDS011;10675;47.976;7.824;2023-05-29T13:54:01;2.85;;;2.55;;
21032;SDS011;10675;47.976;7.824;2023-05-29T13:56:28;5.00;;;2.75;;
21032;SDS011;10675;47.976;7.824;2023-05-29T13:58:54;3.90;;;2.90;;
21032;SDS011;10675;47.976;7.824;2023-05-29T14:01:20;4.45;;;2.95;;
21032;SDS011;10675;47.976;7.824;2023-05-29T14:03:46;4.40;;;2.85;;
21032;SDS011;10675;47.976;7.824;2023-05-29T14:06:11;3.00;;;2.70;;
21032;SDS011;10675;47.976;7.824;2023-05-29T14:08:37;4.82;;;2.67;;
21032;SDS011;10675;47.976;7.824;2023-05-29T14:11:03;4.82;;;2.97;;
21032;SDS011;10675;47.976;7.824;2023-05-29T14:13:28;3.67;;;3.15;;
21032;SDS011;10675;47.976;7.824;2023-05-29T14:15:54;5.18;;;3.10;;
21032;SDS011;10675;47.976;7.824;2023-05-29T14:18:21;5.68;;;3.08;;
21032;SDS011;10675;47.976;7.824;2023-05-29T14:20:47;4.55;;;2.88;;
21032;SDS011;10675;47.976;7.824;2023-05-29T14:23:14;4.57;;;2.83;;
21032;SDS011;10675;47.976;7.824;2023-05-29T14:25:43;3.58;;;2.60;;
21032;SDS011;10675;47.976;7.824;2023-05-29T14:28:08;3.45;;;2.63;;
21032;SDS011;10675;47.976;7.824;2023-05-29T14:30:35;4.25;;;3.33;;
21032;SDS011;10675;47.976;7.824;2023-05-29T14:33:01;3.28;;;2.92;;
21032;SDS011;10675;47.976;7.824;2023-05-29T14:35:27;3.63;;;2.80;;
21032;SDS011;10675;47.976;7.824;2023-05-29T14:37:52;6.10;;;2.85;;
21032;SDS011;10675;47.976;7.824;2023-05-29T14:40:18;6.15;;;2.95;;
21032;SDS011;10675;47.976;7.824;2023-05-29T14:42:43;4.88;;;3.17;;
21032;SDS011;10675;47.976;7.824;2023-05-29T14:45:09;7.38;;;3.58;;
21032;SDS011;10675;47.976;7.824;2023-05-29T14:47:35;4.40;;;2.92;;
21032;SDS011;10675;47.976;7.824;2023-05-29T14:50:01;4.35;;;3.13;;
21032;SDS011;10675;47.976;7.824;2023-05-29T14:52:26;5.20;;;3.20;;
21032;SDS011;10675;47.976;7.824;2023-05-29T14:54:52;4.78;;;2.60;;
21032;SDS011;10675;47.976;7.824;2023-05-29T14:57:17;3.78;;;3.10;;
21032;SDS011;10675;47.976;7.824;2023-05-29T14:59:43;4.40;;;3.08;;
21032;SDS011;10675;47.976;7.824;2023-05-29T15:02:08;3.67;;;2.83;;
21032;SDS011;10675;47.976;7.824;2023-05-29T15:04:34;5.22;;;2.90;;
21032;SDS011;10675;47.976;7.824;2023-05-29T15:07:00;4.97;;;2.80;;